createdAt,value
2018-08-08T00:02:17.560Z,90.90
2018-08-08T00:04:46.047Z,91.10
2018-08-08T00:07:14.168Z,91.20
2018-08-08T00:09:42.282Z,91.70
2018-08-08T00:12:10.648Z,91.60
2018-08-08T00:14:38.806Z,91.70
2018-08-08T00:17:07.350Z,93.80
2018-08-08T00:19:35.490Z,92.80
2018-08-08T00:22:03.610Z,92.60
2018-08-08T00:24:31.748Z,92.90
2018-08-08T00:26:59.868Z,93.20
2018-08-08T00:29:28.002Z,93.60
2018-08-08T00:31:56.113Z,93.50
2018-08-08T00:34:24.248Z,95.90
2018-08-08T00:36:52.359Z,95.70
2018-08-08T00:39:20.489Z,97.90
2018-08-08T00:41:48.684Z,98.00
2018-08-08T00:44:16.809Z,99.00
2018-08-08T00:46:44.919Z,98.10
2018-08-08T00:49:13.038Z,97.60
2018-08-08T00:51:41.167Z,96.30
2018-08-08T00:54:09.286Z,96.40
2018-08-08T00:56:37.400Z,96.30
2018-08-08T00:59:05.527Z,96.20
2018-08-08T01:01:33.646Z,96.10
2018-08-08T01:04:01.773Z,96.30
2018-08-08T01:09:02.843Z,95.90
2018-08-08T01:11:30.944Z,95.70
2018-08-08T01:13:59.066Z,95.30
2018-08-08T01:16:27.170Z,95.00
2018-08-08T01:18:55.296Z,94.60
2018-08-08T01:21:23.409Z,94.40
2018-08-08T01:23:51.559Z,94.00
2018-08-08T01:26:19.679Z,93.60
2018-08-08T01:28:47.807Z,93.40
2018-08-08T01:31:15.913Z,93.30
2018-08-08T01:33:44.039Z,93.30
2018-08-08T01:36:12.161Z,93.20
2018-08-08T01:38:40.286Z,93.20
2018-08-08T01:41:08.430Z,93.20
2018-08-08T01:43:36.558Z,93.30
2018-08-08T01:46:04.692Z,93.10
2018-08-08T01:48:32.806Z,93.00
2018-08-08T01:51:00.926Z,93.00
2018-08-08T01:53:29.044Z,93.20
2018-08-08T01:55:57.178Z,92.90
2018-08-08T01:58:25.281Z,92.90
2018-08-08T02:00:53.408Z,92.80
2018-08-08T02:03:21.522Z,92.60
2018-08-08T02:05:49.633Z,92.60
2018-08-08T02:08:17.750Z,92.50
2018-08-08T02:10:45.881Z,92.80
2018-08-08T02:13:14.028Z,92.40
2018-08-08T02:15:42.167Z,92.50
2018-08-08T02:18:10.280Z,92.10
2018-08-08T02:20:38.424Z,92.60
2018-08-08T02:23:06.559Z,92.60
2018-08-08T02:25:34.695Z,92.70
2018-08-08T02:28:02.804Z,92.80
2018-08-08T02:30:31.411Z,92.80
2018-08-08T02:32:59.532Z,92.80
2018-08-08T02:35:27.665Z,92.90
2018-08-08T02:37:55.806Z,93.10
2018-08-08T02:40:23.914Z,93.30
2018-08-08T02:42:52.031Z,93.40
2018-08-08T02:45:20.613Z,93.40
2018-08-08T02:47:48.751Z,93.40
2018-08-08T02:50:18.342Z,94.10
2018-08-08T02:52:46.456Z,94.40
2018-08-08T02:55:14.838Z,94.00
2018-08-08T02:57:43.257Z,94.30
2018-08-08T03:00:12.869Z,94.70
2018-08-08T03:02:41.177Z,94.70
2018-08-08T03:05:10.238Z,94.80
2018-08-08T03:07:38.553Z,94.80
2018-08-08T03:10:08.434Z,94.70
2018-08-08T03:12:36.547Z,94.80
2018-08-08T03:15:06.541Z,95.40
2018-08-08T03:17:34.650Z,95.00
2018-08-08T03:20:02.978Z,96.20
2018-08-08T03:22:31.095Z,97.50
2018-08-08T03:24:59.194Z,98.20
2018-08-08T03:27:27.624Z,98.30
2018-08-08T03:29:55.747Z,98.90
2018-08-08T03:32:23.886Z,98.60
2018-08-08T03:34:52.010Z,96.00
2018-08-08T03:37:20.127Z,95.50
2018-08-08T03:39:48.227Z,95.60
2018-08-08T03:42:16.365Z,95.40
2018-08-08T03:44:44.482Z,95.40
2018-08-08T03:47:12.595Z,95.90
2018-08-08T03:49:40.734Z,96.20
2018-08-08T03:52:08.851Z,95.40
2018-08-08T03:54:36.984Z,95.70
2018-08-08T03:57:05.235Z,95.60
2018-08-08T03:59:33.339Z,96.70
2018-08-08T04:02:01.458Z,96.10
2018-08-08T04:04:29.554Z,97.00
2018-08-08T04:06:58.775Z,96.80
2018-08-08T04:09:26.949Z,96.40
2018-08-08T04:11:55.076Z,96.30
2018-08-08T04:14:23.170Z,98.00
2018-08-08T04:16:51.281Z,97.80
2018-08-08T04:19:19.382Z,97.60
2018-08-08T04:21:47.683Z,97.00
2018-08-08T04:24:15.842Z,96.80
2018-08-08T04:26:43.918Z,96.90
2018-08-08T04:29:12.015Z,97.20
2018-08-08T04:31:40.139Z,97.10
2018-08-08T04:34:08.248Z,97.00
2018-08-08T04:36:36.399Z,96.90
2018-08-08T04:39:06.858Z,96.40
2018-08-08T04:41:34.990Z,96.20
2018-08-08T04:44:03.099Z,96.20
2018-08-08T04:46:31.229Z,96.80
2018-08-08T04:48:59.400Z,96.40
2018-08-08T04:51:27.558Z,96.60
2018-08-08T04:53:55.669Z,96.20
2018-08-08T04:56:23.775Z,96.00
2018-08-08T04:58:51.904Z,96.20
2018-08-08T05:01:20.037Z,96.70
2018-08-08T05:03:48.171Z,96.90
2018-08-08T05:06:16.300Z,98.10
2018-08-08T05:08:44.417Z,96.90
2018-08-08T05:11:12.531Z,96.70
2018-08-08T05:13:40.910Z,96.80
2018-08-08T05:16:09.018Z,96.60
2018-08-08T05:18:37.118Z,96.40
2018-08-08T05:21:05.225Z,96.20
2018-08-08T05:23:33.345Z,96.60
2018-08-08T05:26:01.458Z,96.70
2018-08-08T05:28:29.582Z,96.70
2018-08-08T05:30:57.701Z,96.70
2018-08-08T05:33:25.838Z,97.70
2018-08-08T05:35:53.990Z,97.70
2018-08-08T05:38:22.115Z,97.90
2018-08-08T05:40:50.234Z,97.80
2018-08-08T05:43:18.355Z,97.40
2018-08-08T05:45:46.474Z,97.10
2018-08-08T05:48:14.618Z,96.20
2018-08-08T05:50:42.726Z,95.80
2018-08-08T05:53:10.855Z,95.10
2018-08-08T05:55:38.986Z,94.60
2018-08-08T05:58:08.031Z,93.50
2018-08-08T06:00:36.182Z,92.80
2018-08-08T06:03:04.332Z,92.00
2018-08-08T06:05:32.461Z,91.60
2018-08-08T06:08:00.630Z,90.90
2018-08-08T06:10:28.814Z,90.50
2018-08-08T06:12:56.947Z,90.40
2018-08-08T06:15:25.063Z,90.50
2018-08-08T06:17:53.193Z,91.20
2018-08-08T06:20:22.238Z,91.80
2018-08-08T06:22:50.747Z,92.20
2018-08-08T06:25:18.916Z,93.30
2018-08-08T06:27:47.268Z,94.10
2018-08-08T06:30:18.494Z,94.50
2018-08-08T06:32:46.687Z,94.80
2018-08-08T06:35:15.734Z,95.20
2018-08-08T06:37:43.863Z,94.90
2018-08-08T06:40:12.738Z,94.30
2018-08-08T06:42:41.098Z,94.20
2018-08-08T06:45:12.015Z,93.70
2018-08-08T06:47:41.029Z,93.60
2018-08-08T06:50:09.773Z,93.80
2018-08-08T06:52:38.509Z,93.90
2018-08-08T06:55:07.765Z,94.00
2018-08-08T06:57:35.890Z,94.20
2018-08-08T07:00:07.378Z,94.30
2018-08-08T07:02:35.482Z,94.30
2018-08-08T07:05:04.454Z,94.50
2018-08-08T07:07:32.575Z,94.40
2018-08-08T07:10:00.700Z,94.50
2018-08-08T07:12:28.822Z,94.50
2018-08-08T07:14:57.543Z,94.30
2018-08-08T07:17:25.657Z,94.30
2018-08-08T07:19:53.822Z,94.00
2018-08-08T07:22:22.023Z,94.00
2018-08-08T07:24:50.196Z,93.30
2018-08-08T07:27:18.366Z,93.50
2018-08-08T07:29:46.615Z,93.50
2018-08-08T07:32:14.801Z,93.20
2018-08-08T07:34:43.098Z,92.60
2018-08-08T07:37:11.850Z,93.70
2018-08-08T07:39:40.078Z,92.70
2018-08-08T07:42:08.347Z,92.30
2018-08-08T07:44:36.598Z,92.20
2018-08-08T07:47:05.039Z,92.00
2018-08-08T07:49:33.240Z,91.80
2018-08-08T07:52:02.425Z,92.50
2018-08-08T07:54:30.797Z,93.30
2018-08-08T07:56:59.127Z,93.00
2018-08-08T07:59:27.306Z,93.60
2018-08-08T08:01:55.419Z,93.40
2018-08-08T08:04:23.562Z,94.50
2018-08-08T08:06:51.682Z,93.90
2018-08-08T08:09:19.835Z,93.50
2018-08-08T08:11:48.518Z,93.10
2018-08-08T08:14:16.662Z,92.90
2018-08-08T08:16:44.955Z,92.80
2018-08-08T08:19:13.083Z,91.80
2018-08-08T08:21:41.209Z,92.40
2018-08-08T08:24:09.339Z,91.70
2018-08-08T08:26:37.515Z,91.10
2018-08-08T08:29:05.866Z,90.80
2018-08-08T08:31:34.092Z,91.20
2018-08-08T08:34:02.441Z,91.10
2018-08-08T08:36:30.588Z,90.80
2018-08-08T08:38:58.698Z,90.50
2018-08-08T08:41:26.827Z,90.10
2018-08-08T08:43:54.942Z,88.70
2018-08-08T08:46:23.071Z,87.60
2018-08-08T08:48:51.234Z,86.20
2018-08-08T08:51:19.694Z,85.00
2018-08-08T08:53:47.818Z,83.80
2018-08-08T08:56:15.927Z,83.30
2018-08-08T08:58:44.038Z,84.20
2018-08-08T09:01:12.164Z,85.10
2018-08-08T09:03:40.313Z,85.00
2018-08-08T09:06:08.446Z,84.20
2018-08-08T09:08:36.554Z,84.60
2018-08-08T09:11:04.675Z,84.20
2018-08-08T09:13:32.905Z,83.70
2018-08-08T09:16:01.025Z,83.60
2018-08-08T09:18:29.130Z,82.70
2018-08-08T09:20:57.251Z,83.10
2018-08-08T09:23:25.378Z,81.50
2018-08-08T09:25:53.606Z,79.80
2018-08-08T09:28:21.744Z,80.70
2018-08-08T09:30:49.935Z,79.90
2018-08-08T09:33:23.334Z,78.80
2018-08-08T09:35:51.455Z,79.80
2018-08-08T09:38:19.659Z,78.70
2018-08-08T09:40:47.774Z,79.40
2018-08-08T09:43:15.886Z,78.20
2018-08-08T09:45:44.022Z,75.70
2018-08-08T09:48:12.140Z,75.70
2018-08-08T09:50:40.314Z,77.00
2018-08-08T09:53:08.435Z,75.60
2018-08-08T09:55:36.566Z,75.00
2018-08-08T09:58:04.674Z,71.80
2018-08-08T10:00:38.779Z,73.30
2018-08-08T10:03:11.014Z,73.20
2018-08-08T10:05:40.119Z,74.00
2018-08-08T10:08:08.247Z,73.30
2018-08-08T10:10:36.424Z,73.60
2018-08-08T10:13:04.551Z,73.00
2018-08-08T10:15:32.735Z,72.80
2018-08-08T10:18:00.929Z,71.40
2018-08-08T10:20:29.502Z,70.70
2018-08-08T10:22:57.644Z,71.20
2018-08-08T10:25:25.757Z,71.90
2018-08-08T10:27:53.917Z,72.80
2018-08-08T10:30:22.746Z,73.30
2018-08-08T10:32:50.893Z,72.60
2018-08-08T10:35:19.046Z,72.70
2018-08-08T10:37:47.471Z,71.20
2018-08-08T10:40:15.592Z,72.40
2018-08-08T10:42:43.728Z,73.20
2018-08-08T10:45:11.863Z,73.40
2018-08-08T10:47:40.306Z,72.10
2018-08-08T10:50:08.442Z,71.30
2018-08-08T10:52:36.934Z,72.80
2018-08-08T10:55:06.699Z,71.40
2018-08-08T10:57:35.003Z,71.30
2018-08-08T11:00:03.205Z,72.90
2018-08-08T11:02:31.366Z,73.60
2018-08-08T11:04:59.474Z,74.20
2018-08-08T11:07:27.629Z,72.20
2018-08-08T11:09:55.737Z,70.60
2018-08-08T11:12:23.935Z,71.50
2018-08-08T11:14:52.045Z,70.90
2018-08-08T11:17:20.211Z,71.90
2018-08-08T11:19:48.331Z,74.20
2018-08-08T11:22:16.478Z,74.60
2018-08-08T11:24:44.635Z,75.30
2018-08-08T11:27:12.767Z,76.90
2018-08-08T11:29:40.924Z,77.60
2018-08-08T11:32:09.043Z,77.50
2018-08-08T11:34:37.243Z,77.40
2018-08-08T11:37:05.702Z,77.90
2018-08-08T11:39:33.812Z,79.40
2018-08-08T11:42:01.921Z,79.70
2018-08-08T11:44:30.103Z,80.00
2018-08-08T11:46:58.311Z,81.50
2018-08-08T11:49:26.422Z,82.90
2018-08-08T11:51:54.543Z,83.60
2018-08-08T11:54:23.462Z,83.90
2018-08-08T11:56:51.570Z,84.20
2018-08-08T11:59:19.688Z,84.90
2018-08-08T12:01:47.808Z,84.70
2018-08-08T12:04:15.922Z,84.00
2018-08-08T12:06:44.031Z,83.90
2018-08-08T12:09:12.186Z,85.30
2018-08-08T12:11:40.578Z,85.50
2018-08-08T12:14:08.786Z,86.00
2018-08-08T12:16:36.898Z,86.20
2018-08-08T12:19:05.118Z,85.10
2018-08-08T12:21:33.171Z,85.00
2018-08-08T12:24:01.347Z,84.70
2018-08-08T12:26:29.461Z,84.70
2018-08-08T12:28:57.645Z,85.10
2018-08-08T12:31:25.813Z,84.50
2018-08-08T12:33:54.226Z,83.30
2018-08-08T12:36:22.367Z,81.90
2018-08-08T12:38:50.505Z,81.30
2018-08-08T12:41:18.685Z,81.70
2018-08-08T12:43:46.814Z,82.80
2018-08-08T12:46:14.977Z,79.50
2018-08-08T12:48:43.067Z,78.80
2018-08-08T12:51:11.252Z,78.50
2018-08-08T12:53:39.334Z,78.80
2018-08-08T12:56:07.532Z,78.20
2018-08-08T12:58:35.682Z,76.80
2018-08-08T13:01:03.802Z,76.00
2018-08-08T13:03:31.976Z,76.80
2018-08-08T13:06:00.095Z,76.50
2018-08-08T13:08:28.257Z,77.60
2018-08-08T13:10:56.342Z,76.70
2018-08-08T13:13:24.465Z,74.40
2018-08-08T13:15:52.660Z,74.50
2018-08-08T13:18:20.774Z,75.80
2018-08-08T13:20:48.903Z,75.90
2018-08-08T13:23:17.033Z,76.30
2018-08-08T13:25:45.192Z,75.70
2018-08-08T13:28:13.303Z,75.40
2018-08-08T13:30:41.443Z,75.40
2018-08-08T13:33:09.583Z,74.50
2018-08-08T13:35:37.707Z,72.50
2018-08-08T13:38:05.854Z,73.60
2018-08-08T13:40:34.055Z,74.30
2018-08-08T13:43:02.175Z,73.90
2018-08-08T13:45:30.350Z,74.60
2018-08-08T13:47:58.637Z,75.50
2018-08-08T13:50:26.894Z,76.40
2018-08-08T13:52:55.227Z,76.50
2018-08-08T13:55:23.351Z,77.60
2018-08-08T13:57:51.458Z,78.30
2018-08-08T14:00:19.859Z,77.90
2018-08-08T14:02:48.032Z,78.50
2018-08-08T14:05:16.165Z,77.20
2018-08-08T14:07:44.290Z,77.10
2018-08-08T14:10:19.226Z,76.50
2018-08-08T14:12:47.428Z,76.80
2018-08-08T14:15:15.555Z,76.00
2018-08-08T14:17:43.674Z,76.10
2018-08-08T14:20:12.599Z,77.20
2018-08-08T14:22:40.751Z,76.00
2018-08-08T14:25:09.151Z,75.00
2018-08-08T14:27:37.358Z,74.80
2018-08-08T14:30:06.007Z,74.80
2018-08-08T14:32:34.512Z,75.10
2018-08-08T14:35:02.868Z,74.50
2018-08-08T14:37:30.970Z,74.40
2018-08-08T14:39:59.224Z,73.70
2018-08-08T14:42:27.339Z,73.90
2018-08-08T14:44:55.460Z,74.00
2018-08-08T14:47:23.665Z,73.90
2018-08-08T14:49:51.722Z,73.70
2018-08-08T14:52:19.867Z,73.00
2018-08-08T14:54:47.997Z,74.30
2018-08-08T14:57:16.142Z,72.80
2018-08-08T14:59:44.327Z,73.10
2018-08-08T15:02:12.492Z,74.00
2018-08-08T15:04:40.647Z,73.10
2018-08-08T15:07:09.011Z,73.90
2018-08-08T15:09:37.112Z,74.10
2018-08-08T15:12:05.256Z,75.40
2018-08-08T15:14:35.931Z,75.70
2018-08-08T15:17:07.897Z,76.30
2018-08-08T15:19:36.869Z,77.30
2018-08-08T15:22:06.270Z,78.10
2018-08-08T15:24:36.894Z,78.80
2018-08-08T15:27:06.462Z,80.00
2018-08-08T15:29:35.538Z,79.60
2018-08-08T15:32:06.109Z,79.00
2018-08-08T15:34:35.517Z,77.60
2018-08-08T15:37:05.671Z,76.00
2018-08-08T15:39:34.825Z,76.50
2018-08-08T15:42:03.988Z,77.40
2018-08-08T15:44:33.921Z,77.70
2018-08-08T15:47:03.496Z,75.70
2018-08-08T15:49:32.738Z,76.10
2018-08-08T15:52:02.314Z,77.10
2018-08-08T15:54:31.903Z,77.90
2018-08-08T15:57:01.962Z,78.20
2018-08-08T15:59:31.425Z,79.50
2018-08-08T16:02:01.005Z,79.90
2018-08-08T16:04:30.664Z,77.40
2018-08-08T16:07:00.260Z,78.60
2018-08-08T16:09:32.007Z,77.80
2018-08-08T16:12:02.105Z,77.30
2018-08-08T16:14:32.422Z,76.40
2018-08-08T16:17:02.296Z,76.30
2018-08-08T16:19:32.703Z,76.60
2018-08-08T16:22:03.902Z,76.10
2018-08-08T16:24:33.468Z,76.80
2018-08-08T16:27:03.235Z,77.50
2018-08-08T16:29:32.673Z,77.70
2018-08-08T16:32:02.042Z,77.40
2018-08-08T16:34:32.866Z,78.20
2018-08-08T16:37:03.754Z,79.10
2018-08-08T16:39:33.152Z,79.80
2018-08-08T16:42:03.262Z,80.40
2018-08-08T16:44:32.949Z,80.00
2018-08-08T16:47:02.474Z,80.00
2018-08-08T16:49:32.114Z,80.30
2018-08-08T16:52:02.197Z,80.90
2018-08-08T16:54:32.224Z,81.30
2018-08-08T16:57:01.718Z,81.70
2018-08-08T16:59:31.465Z,81.40
2018-08-08T17:02:02.447Z,82.10
2018-08-08T17:04:31.812Z,81.20
2018-08-08T17:07:00.148Z,81.30
2018-08-08T17:09:28.994Z,81.60
2018-08-08T17:11:57.713Z,82.20
2018-08-08T17:14:27.436Z,82.60
2018-08-08T17:16:56.661Z,82.70
2018-08-08T17:19:25.413Z,82.40
2018-08-08T17:21:55.152Z,82.50
2018-08-08T17:24:24.448Z,82.30
2018-08-08T17:26:53.680Z,82.70
2018-08-08T17:29:22.254Z,83.00
2018-08-08T17:31:51.503Z,84.50
2018-08-08T17:34:21.148Z,84.00
2018-08-08T17:36:49.782Z,84.00
2018-08-08T17:39:19.559Z,84.60
2018-08-08T17:41:47.974Z,85.20
2018-08-08T17:44:16.282Z,85.50
2018-08-08T17:46:45.243Z,85.70
2018-08-08T17:49:14.139Z,85.80
2018-08-08T17:51:42.955Z,86.50
2018-08-08T17:54:11.943Z,86.60
2018-08-08T17:56:40.899Z,86.70
2018-08-08T17:59:09.445Z,86.70
2018-08-08T18:01:38.316Z,87.40
2018-08-08T18:04:07.338Z,87.20
2018-08-08T18:06:36.078Z,87.50
2018-08-08T18:09:07.302Z,87.20
2018-08-08T18:11:35.446Z,87.40
2018-08-08T18:14:03.595Z,87.90
2018-08-08T18:16:31.705Z,88.00
2018-08-08T18:18:59.823Z,87.70
2018-08-08T18:21:27.960Z,87.60
2018-08-08T18:24:02.666Z,87.90
2018-08-08T18:26:32.166Z,87.70
2018-08-08T18:29:00.291Z,88.10
2018-08-08T18:31:28.415Z,88.40
2018-08-08T18:33:56.582Z,88.70
2018-08-08T18:36:24.905Z,88.80
2018-08-08T18:38:53.025Z,89.10
2018-08-08T18:41:21.132Z,89.20
2018-08-08T18:43:49.334Z,89.70
2018-08-08T18:46:17.714Z,89.90
2018-08-08T18:48:45.861Z,90.00
2018-08-08T18:51:13.970Z,89.90
2018-08-08T18:53:42.091Z,89.90
2018-08-08T18:56:10.243Z,90.10
2018-08-08T18:58:38.368Z,90.30
2018-08-08T19:01:06.787Z,90.30
2018-08-08T19:03:34.972Z,90.40
2018-08-08T19:06:03.079Z,90.30
2018-08-08T19:08:31.214Z,90.60
2018-08-08T19:11:00.072Z,91.00
2018-08-08T19:13:28.209Z,90.90
2018-08-08T19:15:56.330Z,91.00
2018-08-08T19:18:24.458Z,91.00
2018-08-08T19:20:52.578Z,91.00
2018-08-08T19:23:20.705Z,91.00
2018-08-08T19:25:48.821Z,91.00
2018-08-08T19:28:16.963Z,91.10
2018-08-08T19:30:45.107Z,91.20
2018-08-08T19:33:13.206Z,91.20
2018-08-08T19:35:41.563Z,91.20
2018-08-08T19:38:09.662Z,91.50
2018-08-08T19:40:37.768Z,91.70
2018-08-08T19:43:06.075Z,92.10
2018-08-08T19:45:34.567Z,91.80
2018-08-08T19:48:02.754Z,91.70
2018-08-08T19:50:30.867Z,91.80
2018-08-08T19:52:59.185Z,91.70
2018-08-08T19:55:27.342Z,91.80
2018-08-08T19:57:55.434Z,92.00
2018-08-08T20:00:23.559Z,92.50
2018-08-08T20:02:51.659Z,92.30
2018-08-08T20:05:19.763Z,92.40
2018-08-08T20:07:47.875Z,92.50
2018-08-08T20:10:16.011Z,92.40
2018-08-08T20:12:44.216Z,92.60
2018-08-08T20:15:12.343Z,92.70
2018-08-08T20:17:40.450Z,92.80
2018-08-08T20:20:08.570Z,92.90
2018-08-08T20:22:36.699Z,93.00
2018-08-08T20:25:04.877Z,93.10
2018-08-08T20:27:32.937Z,93.00
2018-08-08T20:30:01.062Z,93.10
2018-08-08T20:32:29.163Z,93.20
2018-08-08T20:34:57.282Z,93.30
2018-08-08T20:37:25.392Z,93.50
2018-08-08T20:39:53.502Z,93.70
2018-08-08T20:42:21.624Z,93.80
2018-08-08T20:44:49.804Z,94.00
2018-08-08T20:47:17.845Z,94.00
2018-08-08T20:49:45.969Z,94.10
2018-08-08T20:52:14.097Z,94.40
2018-08-08T20:54:42.219Z,94.50
2018-08-08T20:57:10.329Z,94.60
2018-08-08T20:59:38.459Z,95.10
2018-08-08T21:02:06.573Z,94.80
2018-08-08T21:04:34.745Z,94.80
2018-08-08T21:07:02.879Z,95.10
2018-08-08T21:09:30.992Z,95.20
2018-08-08T21:11:59.113Z,95.30
2018-08-08T21:14:27.234Z,96.70
2018-08-08T21:16:55.364Z,96.70
2018-08-08T21:19:23.492Z,96.80
2018-08-08T21:21:51.607Z,96.40
2018-08-08T21:24:19.728Z,97.20
2018-08-08T21:26:47.847Z,97.70
2018-08-08T21:29:15.974Z,97.80
2018-08-08T21:31:44.107Z,98.90
2018-08-08T21:34:12.223Z,99.20
2018-08-08T21:36:40.343Z,99.70
2018-08-08T21:39:10.086Z,99.90
2018-08-08T21:41:38.210Z,99.90
2018-08-08T21:44:06.338Z,99.80
2018-08-08T21:46:34.689Z,99.90
2018-08-08T21:49:02.817Z,99.90
2018-08-08T21:51:30.950Z,99.90
2018-08-08T21:54:10.404Z,99.90
2018-08-08T21:56:50.368Z,99.90
2018-08-08T21:59:30.171Z,99.90
2018-08-08T22:02:09.768Z,99.90
2018-08-08T22:04:49.586Z,99.90
2018-08-08T22:07:29.190Z,99.90
2018-08-08T22:10:08.827Z,99.90
2018-08-08T22:12:48.251Z,99.90
2018-08-08T22:15:28.259Z,99.90
2018-08-08T22:18:07.935Z,99.90
2018-08-08T22:20:36.039Z,99.90
2018-08-08T22:23:04.174Z,99.90
2018-08-08T22:25:32.286Z,99.90
2018-08-08T22:28:00.410Z,99.90
2018-08-08T22:30:28.544Z,99.90
2018-08-08T22:32:56.732Z,99.90
2018-08-08T22:35:24.790Z,99.90
2018-08-08T22:37:52.906Z,99.90
2018-08-08T22:40:21.027Z,99.90
2018-08-08T22:42:49.176Z,99.90
2018-08-08T22:45:17.276Z,99.90
2018-08-08T22:47:45.394Z,99.90
2018-08-08T22:50:13.554Z,99.90
2018-08-08T22:52:41.770Z,99.90
2018-08-08T22:55:09.895Z,99.90
2018-08-08T22:57:38.015Z,99.90
2018-08-08T23:00:08.528Z,99.90
2018-08-08T23:02:36.653Z,99.90
2018-08-08T23:05:05.323Z,99.90
2018-08-08T23:07:33.532Z,99.90
2018-08-08T23:10:01.668Z,99.90
2018-08-08T23:12:30.426Z,99.90
2018-08-08T23:14:58.534Z,99.90
2018-08-08T23:17:26.643Z,99.90
2018-08-08T23:19:54.780Z,99.90
2018-08-08T23:22:34.486Z,99.90
2018-08-08T23:25:02.609Z,99.90
2018-08-08T23:27:30.722Z,99.90
2018-08-08T23:29:58.838Z,99.90
2018-08-08T23:32:26.951Z,99.90
2018-08-08T23:34:55.075Z,99.90
2018-08-08T23:37:23.194Z,99.90
2018-08-08T23:39:51.309Z,99.90
2018-08-08T23:42:19.427Z,99.90
2018-08-08T23:44:47.547Z,99.90
2018-08-08T23:47:15.654Z,99.90
2018-08-08T23:49:43.774Z,99.90
2018-08-08T23:52:11.947Z,99.90
2018-08-08T23:54:40.122Z,99.90
2018-08-08T23:57:08.234Z,99.90
2018-08-08T23:59:36.687Z,99.90
